TimeMDT,TemperatureF,Dew PointF,Humidity,Sea Level PressureIn,VisibilityMPH,Wind Direction,Wind SpeedMPH,Gust SpeedMPH,PrecipitationIn,Events,Conditions,WindDirDegrees,DateUTC
12:53 AM,45.0,43.0,93,30.02,10.0,SE,6.9,-,N/A,,Clear,140,2012-09-26 06:53:00
2:53 AM,42.1,39.9,92,30.02,10.0,Calm,Calm,-,N/A,,Clear,0,2012-09-26 08:53:00
3:53 AM,41.0,39.9,96,30.02,10.0,SSE,5.8,-,N/A,,Clear,150,2012-09-26 09:53:00
4:53 AM,41.0,39.9,96,30.03,10.0,SSE,6.9,-,N/A,,Clear,150,2012-09-26 10:53:00
5:53 AM,41.0,39.0,93,30.03,10.0,South,4.6,-,N/A,,Clear,170,2012-09-26 11:53:00
6:53 AM,39.0,37.9,96,30.07,10.0,ESE,3.5,-,N/A,,Clear,110,2012-09-26 12:53:00
7:53 AM,41.0,39.0,93,30.09,10.0,Calm,Calm,-,N/A,,Scattered Clouds,0,2012-09-26 13:53:00
8:53 AM,46.0,42.1,86,30.09,10.0,Calm,Calm,-,N/A,,Overcast,0,2012-09-26 14:53:00
9:53 AM,50.0,46.0,86,30.09,10.0,North,5.8,-,N/A,,Mostly Cloudy,360,2012-09-26 15:53:00
10:53 AM,52.0,44.1,74,30.09,10.0,Calm,Calm,-,N/A,,Partly Cloudy,0,2012-09-26 16:53:00
11:53 AM,54.0,46.0,75,30.08,10.0,NW,9.2,-,N/A,,Partly Cloudy,320,2012-09-26 17:53:00
12:53 PM,54.0,44.1,69,30.08,10.0,Calm,Calm,-,N/A,,Scattered Clouds,0,2012-09-26 18:53:00
1:16 PM,53.6,44.6,72,30.20,10.0,Calm,Calm,-,0.00,Rain-Thunderstorm,Light Rain,0,2012-09-26 19:16:00
1:31 PM,53.6,44.6,72,30.20,10.0,WSW,3.5,-,0.00,Rain,Light Rain,240,2012-09-26 19:31:00
1:53 PM,53.1,46.0,77,30.10,7.0,Calm,Calm,-,0.02,Rain,Light Rain,0,2012-09-26 19:53:00
2:53 PM,53.1,48.0,83,30.10,9.0,NW,6.9,-,0.01,Rain,Light Rain,320,2012-09-26 20:53:00
4:53 PM,50.0,48.0,93,30.13,10.0,ESE,11.5,-,0.12,Rain,Light Rain,110,2012-09-26 22:53:00
5:53 PM,52.0,48.9,89,30.14,10.0,South,4.6,-,0.00,,Overcast,190,2012-09-26 23:53:00
6:53 PM,52.0,48.9,89,30.13,10.0,NE,4.6,-,N/A,,Overcast,50,2012-09-27 00:53:00
7:53 PM,48.9,48.0,97,30.15,10.0,NNW,3.5,-,N/A,,Overcast,330,2012-09-27 01:53:00
8:53 PM,48.0,46.9,96,30.14,10.0,Calm,Calm,-,N/A,,Mostly Cloudy,0,2012-09-27 02:53:00
9:53 PM,46.9,45.0,93,30.14,10.0,Calm,Calm,-,N/A,,Clear,0,2012-09-27 03:53:00
10:53 PM,45.0,45.0,100,30.14,10.0,East,4.6,-,N/A,,Clear,100,2012-09-27 04:53:00
11:53 PM,44.1,44.1,100,30.15,9.0,South,3.5,-,N/A,,Partly Cloudy,180,2012-09-27 05:53:00